Time;durP1;ratioP1;P1;durP2;ratioP2;P2;SDS_P1;SDS_P2;PMS_P1;PMS_P2;Temp;Humidity;BMP_temperature;BMP_pressure;BME280_temperature;BME280_humidity;BME280_pressure;Samples;Min_cycle;Max_cycle;Signal;HPM_P1;HPM_P2
2023/06/29 00:00:08;;;;;;;4.47;3.92;;;;;;;16.17;95.32;94974.06;5012266;28;20176;-79
2023/06/29 00:02:34;;;;;;;6.18;4.90;;;;;;;16.08;95.47;94970.25;5010857;28;20435;-79
2023/06/29 00:04:59;;;;;;;4.82;4.13;;;;;;;16.15;95.19;94978.84;5012184;28;20234;-79
2023/06/29 00:07:25;;;;;;;6.20;4.20;;;;;;;16.17;94.87;94981.25;5012256;28;20201;-79
2023/06/29 00:09:52;;;;;;;6.25;4.57;;;;;;;16.01;94.76;94963.44;5012548;28;20176;-79
2023/06/29 00:12:17;;;;;;;6.80;4.68;;;;;;;15.98;94.90;94972.72;5011697;28;20882;-79
2023/06/29 00:14:43;;;;;;;6.88;4.72;;;;;;;15.87;94.39;94947.03;5011952;28;20187;-79
2023/06/29 00:17:08;;;;;;;5.20;4.43;;;;;;;16.14;94.66;94979.88;5011877;28;20164;-79
2023/06/29 00:19:35;;;;;;;5.13;4.00;;;;;;;16.14;94.92;94987.84;5011838;28;20183;-79
2023/06/29 00:22:00;;;;;;;4.82;4.05;;;;;;;16.17;95.02;94982.03;5012098;28;20263;-79
2023/06/29 00:24:28;;;;;;;5.57;4.28;;;;;;;16.17;94.30;94975.94;5011940;28;20263;-79
2023/06/29 00:26:54;;;;;;;4.93;3.97;;;;;;;15.95;94.29;94943.19;5011870;28;20208;-79
2023/06/29 00:29:19;;;;;;;4.78;4.18;;;;;;;16.13;94.42;94964.19;5012166;28;20177;-79
2023/06/29 00:31:44;;;;;;;7.57;4.13;;;;;;;16.13;94.83;94954.38;5011948;28;20259;-79
2023/06/29 00:34:10;;;;;;;5.05;3.90;;;;;;;16.16;95.02;94955.75;5012039;28;20177;-79
2023/06/29 00:36:36;;;;;;;5.07;4.30;;;;;;;16.13;94.80;94959.69;5012195;28;20638;-79
2023/06/29 00:39:03;;;;;;;11.73;4.32;;;;;;;16.10;95.10;94962.00;5011755;28;20172;-79
2023/06/29 00:41:28;;;;;;;4.60;4.20;;;;;;;16.10;94.94;94962.00;5011884;28;20176;-79
2023/06/29 00:43:54;;;;;;;4.88;3.85;;;;;;;16.05;94.95;94960.09;5011867;28;20698;-79
2023/06/29 00:46:20;;;;;;;8.00;4.03;;;;;;;16.05;95.10;94957.44;5011818;28;20184;-79
2023/06/29 00:48:47;;;;;;;4.32;3.60;;;;;;;16.03;95.20;94969.34;5011613;28;20590;-79
2023/06/29 00:51:15;;;;;;;4.53;3.80;;;;;;;15.97;95.32;94963.16;5011635;28;20326;-79
2023/06/29 00:53:42;;;;;;;5.28;3.83;;;;;;;16.03;95.51;94964.81;5011959;28;20168;-79
2023/06/29 00:56:07;;;;;;;8.07;4.18;;;;;;;15.99;95.64;94963.72;5011528;28;20176;-79
2023/06/29 00:58:33;;;;;;;4.30;3.83;;;;;;;16.00;95.45;94970.63;5014855;28;20176;-79
2023/06/29 01:00:58;;;;;;;6.32;4.28;;;;;;;15.86;95.20;94961.38;5015465;28;20259;-79
2023/06/29 01:03:24;;;;;;;4.88;4.13;;;;;;;16.00;94.72;94975.16;5015660;28;20179;-79
2023/06/29 01:05:56;;;;;;;5.88;4.22;;;;;;;15.92;94.82;94962.25;5015771;28;20181;-79
2023/06/29 01:08:27;;;;;;;5.35;4.10;;;;;;;15.89;94.42;94968.84;5015506;28;20751;-79
2023/06/29 01:10:53;;;;;;;5.57;4.53;;;;;;;15.93;94.72;94974.47;5013967;28;20172;-80
2023/06/29 01:13:19;;;;;;;6.35;4.07;;;;;;;15.76;94.66;94979.78;5015510;28;20173;-80
2023/06/29 01:15:46;;;;;;;5.47;4.38;;;;;;;15.75;95.42;94971.00;5015556;28;20597;-79
2023/06/29 01:18:13;;;;;;;6.90;4.50;;;;;;;15.67;95.75;94944.03;5015297;28;20307;-79
2023/06/29 01:20:40;;;;;;;7.35;4.68;;;;;;;15.74;95.82;94950.03;5015259;28;20280;-79
2023/06/29 01:23:10;;;;;;;4.95;4.20;;;;;;;15.90;96.02;94975.78;5015201;28;20266;-79
2023/06/29 01:25:36;;;;;;;5.20;4.07;;;;;;;15.79;95.98;94960.72;5015190;28;20180;-80
2023/06/29 01:28:09;;;;;;;6.03;5.00;;;;;;;15.80;95.41;94959.69;5014995;28;20204;-79
2023/06/29 01:30:39;;;;;;;6.18;4.10;;;;;;;15.93;95.25;94975.28;5013406;28;20204;-79
2023/06/29 01:33:07;;;;;;;4.90;4.28;;;;;;;15.91;95.28;94976.59;5015121;28;20694;-79
2023/06/29 01:35:32;;;;;;;6.05;4.10;;;;;;;15.66;95.09;94935.28;5015049;28;20180;-79
2023/06/29 01:38:10;;;;;;;6.18;4.30;;;;;;;15.74;95.05;94948.16;5014913;28;20173;-79
2023/06/29 01:40:40;;;;;;;5.70;4.43;;;;;;;15.84;94.75;94960.78;5013189;28;20179;-80
2023/06/29 01:43:05;;;;;;;6.63;4.45;;;;;;;15.47;94.71;94912.66;5015152;28;20191;-80
2023/06/29 01:45:32;;;;;;;6.97;5.13;;;;;;;15.72;94.56;94957.44;5014775;28;20411;-80
2023/06/29 01:47:58;;;;;;;5.32;4.53;;;;;;;15.57;94.27;94949.22;5014885;28;20576;-80
2023/06/29 01:50:24;;;;;;;6.43;4.72;;;;;;;15.65;94.39;94959.44;5015009;28;20176;-79
2023/06/29 01:52:49;;;;;;;5.78;4.68;;;;;;;15.65;93.81;94962.09;5014679;28;20201;-79
2023/06/29 01:55:15;;;;;;;6.65;5.43;;;;;;;15.64;93.70;94960.47;5014946;28;20610;-79
2023/06/29 01:57:40;;;;;;;7.00;5.50;;;;;;;15.54;93.81;94961.09;5014818;28;20314;-79
2023/06/29 02:00:06;;;;;;;7.72;5.15;;;;;;;15.51;93.72;94963.38;5014476;28;20234;-79
2023/06/29 02:02:32;;;;;;;7.80;5.72;;;;;;;15.48;93.57;94962.81;5014509;28;20252;-79
2023/06/29 02:04:58;;;;;;;6.32;5.07;;;;;;;15.21;93.74;94937.13;5014804;28;20176;-79
2023/06/29 02:07:24;;;;;;;8.00;6.03;;;;;;;14.97;94.95;94969.00;5013490;28;20442;-80
2023/06/29 02:09:50;;;;;;;9.68;5.70;;;;;;;14.86;95.81;94977.00;5014582;28;20243;-80
2023/06/29 02:12:16;;;;;;;8.70;6.38;;;;;;;14.83;96.04;94950.94;5014612;28;20196;-80
2023/06/29 02:14:41;;;;;;;9.02;4.97;;;;;;;14.97;95.50;94970.84;5014389;28;20183;-80
2023/06/29 02:17:07;;;;;;;9.05;5.75;;;;;;;14.88;95.89;94969.59;5014102;28;20564;-80
2023/06/29 02:19:32;;;;;;;6.70;4.90;;;;;;;14.97;95.56;94973.50;5014077;28;20266;-80
2023/06/29 02:21:57;;;;;;;10.45;5.97;;;;;;;15.05;95.26;94973.13;5014317;28;20551;-80
2023/06/29 02:24:23;;;;;;;8.57;5.57;;;;;;;15.00;95.21;94967.72;5013721;28;20496;-80
2023/06/29 02:26:48;;;;;;;8.45;6.07;;;;;;;14.69;94.96;94955.72;5013820;28;20177;-80
2023/06/29 02:29:14;;;;;;;7.55;6.05;;;;;;;14.62;95.20;94928.53;5014054;28;20642;-79
2023/06/29 02:31:39;;;;;;;10.05;6.43;;;;;;;14.86;95.26;94964.56;5012413;28;20191;-79
2023/06/29 02:34:04;;;;;;;5.82;5.05;;;;;;;14.95;94.83;94971.09;5013875;28;20178;-79
2023/06/29 02:36:30;;;;;;;8.27;5.57;;;;;;;15.00;94.98;94970.38;5013831;28;20169;-79
2023/06/29 02:38:56;;;;;;;8.63;5.50;;;;;;;14.77;95.00;94926.19;5014105;28;20204;-79
2023/06/29 02:41:21;;;;;;;6.05;4.88;;;;;;;15.05;94.78;94973.94;5013911;28;20246;-79
2023/06/29 02:43:47;;;;;;;8.10;5.28;;;;;;;15.10;94.45;94967.94;5013916;28;20208;-79
2023/06/29 02:46:12;;;;;;;6.97;5.40;;;;;;;15.09;94.01;94964.47;5013783;28;20267;-79
2023/06/29 02:48:37;;;;;;;8.23;5.50;;;;;;;15.12;93.69;94973.00;5013708;28;20277;-79
2023/06/29 02:51:03;;;;;;;7.13;5.28;;;;;;;15.02;93.61;94971.78;5013708;28;20652;-79
2023/06/29 02:53:28;;;;;;;6.85;5.68;;;;;;;15.03;93.66;94973.38;5013850;28;20188;-79
2023/06/29 02:55:54;;;;;;;8.87;5.83;;;;;;;14.99;94.21;94971.41;5013054;28;20421;-79
2023/06/29 02:58:19;;;;;;;7.93;6.18;;;;;;;14.70;93.92;94954.69;5012608;28;20406;-79
2023/06/29 03:00:44;;;;;;;7.65;5.82;;;;;;;14.85;93.30;94978.03;5013303;28;20738;-79
2023/06/29 03:03:10;;;;;;;7.65;5.50;;;;;;;14.87;93.40;94976.78;5013107;28;20219;-79
2023/06/29 03:05:35;;;;;;;11.17;5.80;;;;;;;14.86;93.55;94977.81;5013114;28;20411;-79
2023/06/29 03:08:00;;;;;;;8.40;5.28;;;;;;;14.73;93.54;94964.78;5013048;28;20203;-79
2023/06/29 03:10:26;;;;;;;6.55;5.03;;;;;;;14.89;93.30;94987.91;5013491;28;20896;-79
2023/06/29 03:12:51;;;;;;;7.25;5.32;;;;;;;14.64;93.09;94982.91;5013073;28;20616;-79
2023/06/29 03:15:17;;;;;;;7.72;5.85;;;;;;;14.58;93.99;94986.50;5013124;28;20226;-79
2023/06/29 03:17:42;;;;;;;8.02;5.68;;;;;;;14.51;94.22;94963.81;5013711;28;20176;-79
2023/06/29 03:20:08;;;;;;;11.82;8.20;;;;;;;14.21;94.95;94982.44;5010672;28;20442;-79
2023/06/29 03:22:33;;;;;;;9.27;6.35;;;;;;;14.16;95.85;94982.31;5012779;28;20168;-79
2023/06/29 03:24:59;;;;;;;15.63;9.15;;;;;;;14.19;96.42;94987.13;5012959;28;20234;-79
2023/06/29 03:27:24;;;;;;;9.82;6.88;;;;;;;14.38;96.63;94980.69;5012719;28;20200;-78
2023/06/29 03:29:52;;;;;;;12.25;7.43;;;;;;;14.35;96.42;94978.53;5012930;28;20671;-78
2023/06/29 03:32:17;;;;;;;8.70;6.55;;;;;;;14.21;96.28;94953.31;5012687;28;20600;-79
2023/06/29 03:34:43;;;;;;;12.00;6.53;;;;;;;14.60;96.60;94989.72;5012414;28;20275;-80
2023/06/29 03:37:08;;;;;;;16.67;10.50;;;;;;;14.70;95.80;94989.91;5012689;28;20180;-80
2023/06/29 03:39:33;;;;;;;11.88;7.72;;;;;;;14.92;95.37;94989.31;5012424;28;20176;-79
2023/06/29 03:41:59;;;;;;;11.15;7.85;;;;;;;15.21;95.17;94998.94;5012508;28;20176;-79
2023/06/29 03:44:24;;;;;;;16.00;8.75;;;;;;;15.22;94.73;94958.06;5027655;28;20201;-80
2023/06/29 03:46:51;;;;;;;11.05;6.82;;;;;;;15.60;92.90;94996.47;5012041;28;21062;-79
2023/06/29 03:49:17;;;;;;;22.00;14.50;;;;;;;15.72;92.30;94994.59;5012459;28;20177;-80
2023/06/29 03:51:42;;;;;;;11.13;6.65;;;;;;;15.90;91.58;95006.84;5012849;28;20164;-80
2023/06/29 03:54:07;;;;;;;15.70;9.73;;;;;;;16.06;91.34;95000.72;5013255;28;20199;-80
2023/06/29 03:56:33;;;;;;;10.70;7.25;;;;;;;16.21;90.45;95001.78;5012939;28;20187;-80
2023/06/29 03:58:58;;;;;;;8.88;7.40;;;;;;;16.35;89.62;95004.09;5012391;28;20546;-80
2023/06/29 04:01:24;;;;;;;10.13;7.38;;;;;;;16.47;88.71;95010.94;5011970;28;20228;-79
2023/06/29 04:03:50;;;;;;;11.00;7.65;;;;;;;16.43;87.66;95015.13;5012316;28;20205;-79
2023/06/29 04:06:15;;;;;;;8.68;7.07;;;;;;;16.57;88.32;95018.25;5012869;28;20188;-80
2023/06/29 04:08:41;;;;;;;8.52;7.05;;;;;;;16.68;87.83;95016.59;5010062;28;20223;-80
2023/06/29 04:11:06;;;;;;;10.05;7.45;;;;;;;16.84;88.49;95013.88;5012207;28;20184;-80
2023/06/29 04:13:32;;;;;;;9.10;6.25;;;;;;;17.00;88.32;95016.75;5010954;28;20168;-80
2023/06/29 04:15:57;;;;;;;7.57;6.47;;;;;;;17.02;85.86;94993.38;5012137;28;20542;-79
2023/06/29 04:18:23;;;;;;;8.65;6.70;;;;;;;17.28;85.19;95013.91;5012041;28;20184;-80
2023/06/29 04:20:48;;;;;;;9.77;6.72;;;;;;;17.44;85.42;95012.22;5012344;28;20176;-80
2023/06/29 04:23:15;;;;;;;7.28;6.00;;;;;;;17.60;84.05;95019.31;5011685;28;20944;-80
2023/06/29 04:25:43;;;;;;;8.70;6.60;;;;;;;17.61;83.16;95003.09;5011898;28;20176;-81
2023/06/29 04:28:09;;;;;;;9.98;7.03;;;;;;;17.86;82.54;95012.44;5011909;28;20204;-79
2023/06/29 04:30:38;;;;;;;8.88;6.75;;;;;;;17.99;82.09;95017.31;5011854;28;20181;-80
2023/06/29 04:33:09;;;;;;;9.70;7.13;;;;;;;18.12;81.94;94995.59;5011947;28;20180;-81
2023/06/29 04:35:42;;;;;;;8.52;6.93;;;;;;;18.40;80.03;95013.97;5011698;28;20187;-83
2023/06/29 04:38:09;;;;;;;8.95;7.13;;;;;;;18.56;78.64;95016.72;5011727;28;20161;-83
2023/06/29 04:40:35;;;;;;;9.18;6.82;;;;;;;18.40;77.49;94981.16;5010861;28;20180;-85
2023/06/29 04:43:01;;;;;;;7.82;6.65;;;;;;;18.79;78.00;95024.38;5012230;28;20157;-80
2023/06/29 04:45:28;;;;;;;12.32;7.68;;;;;;;18.92;79.04;95018.59;5011790;28;20172;-83
2023/06/29 04:47:56;;;;;;;10.82;6.85;;;;;;;19.25;78.38;95027.28;5011649;28;20201;-81
2023/06/29 04:50:25;;;;;;;10.35;7.00;;;;;;;19.43;76.65;95024.16;5009490;28;20616;-81
2023/06/29 04:52:58;;;;;;;11.52;8.02;;;;;;;19.59;76.04;95037.34;5010911;28;20168;-81
2023/06/29 04:55:24;;;;;;;9.77;7.10;;;;;;;19.56;72.69;95037.84;5012369;28;20226;-80
2023/06/29 04:57:50;;;;;;;13.23;9.05;;;;;;;19.50;75.03;95038.09;5012010;28;20715;-81
2023/06/29 05:00:16;;;;;;;8.43;6.97;;;;;;;19.63;75.29;95036.81;5011733;28;20177;-81
2023/06/29 05:02:41;;;;;;;8.45;6.50;;;;;;;19.63;72.35;95040.31;5011469;28;20220;-81
2023/06/29 05:05:08;;;;;;;21.52;11.98;;;;;;;19.59;75.27;95044.53;5011762;28;20628;-81
2023/06/29 05:07:34;;;;;;;22.70;14.02;;;;;;;19.57;74.58;95042.13;5011432;28;20246;-81
2023/06/29 05:10:00;;;;;;;8.27;6.85;;;;;;;19.47;73.48;95044.75;5012005;28;20184;-81
2023/06/29 05:12:26;;;;;;;18.08;10.20;;;;;;;19.17;73.40;95037.41;5012215;28;20156;-81
2023/06/29 05:14:52;;;;;;;15.88;11.70;;;;;;;19.12;76.28;95050.72;5011502;28;20172;-81
2023/06/29 05:17:17;;;;;;;10.65;7.90;;;;;;;18.98;75.36;95056.78;5011465;28;20310;-80
2023/06/29 05:19:44;;;;;;;9.68;6.93;;;;;;;18.60;75.73;95023.97;5011492;28;20164;-81
2023/06/29 05:22:09;;;;;;;12.15;7.82;;;;;;;18.77;77.07;95053.97;5011764;28;20172;-80
2023/06/29 05:24:34;;;;;;;9.95;6.63;;;;;;;19.17;76.58;95042.75;5012043;28;20177;-80
2023/06/29 05:27:00;;;;;;;8.77;6.90;;;;;;;19.61;74.77;95033.59;5011295;28;20255;-80
2023/06/29 05:29:25;;;;;;;12.57;7.88;;;;;;;20.52;73.54;95066.66;5011337;28;20546;-80
2023/06/29 05:31:51;;;;;;;9.98;7.35;;;;;;;21.14;69.27;95059.34;5011391;28;20255;-80
2023/06/29 05:34:16;;;;;;;13.10;8.48;;;;;;;21.67;67.88;95063.22;5011432;28;20167;-80
2023/06/29 05:36:41;;;;;;;8.85;5.97;;;;;;;22.49;65.20;95077.78;5011457;28;20198;-80
2023/06/29 05:39:07;;;;;;;12.95;7.05;;;;;;;23.16;64.07;95070.81;5011485;28;20173;-81
2023/06/29 05:41:32;;;;;;;6.97;5.85;;;;;;;23.87;62.64;95068.13;5011204;28;20180;-80
2023/06/29 05:43:58;;;;;;;10.02;6.10;;;;;;;24.08;59.66;95057.91;5013356;28;20180;-81
2023/06/29 05:46:23;;;;;;;10.75;7.15;;;;;;;24.19;59.84;95053.19;5014570;28;20597;-80
2023/06/29 05:48:48;;;;;;;6.32;5.65;;;;;;;24.52;58.32;95056.75;5014601;28;20198;-81
2023/06/29 05:51:14;;;;;;;12.25;6.68;;;;;;;24.59;59.12;95049.09;5014598;28;20230;-81
2023/06/29 05:53:41;;;;;;;7.45;5.45;;;;;;;24.45;58.81;95059.81;5014556;28;20252;-82
2023/06/29 05:56:07;;;;;;;9.38;5.82;;;;;;;23.92;58.77;95030.41;5014329;28;20270;-80
2023/06/29 05:58:32;;;;;;;6.53;5.68;;;;;;;23.51;59.74;95064.28;5014513;28;20169;-80
2023/06/29 06:00:57;;;;;;;8.18;6.30;;;;;;;22.88;61.06;95061.66;5014057;28;20655;-80
2023/06/29 06:03:23;;;;;;;6.35;5.75;;;;;;;22.22;63.15;95045.28;5014329;28;20203;-80
2023/06/29 06:05:49;;;;;;;10.07;5.75;;;;;;;21.98;64.81;95058.53;5013206;28;20169;-80
2023/06/29 06:08:14;;;;;;;8.30;6.40;;;;;;;21.83;64.37;95052.16;5014189;28;20279;-80
2023/06/29 06:10:40;;;;;;;9.30;6.22;;;;;;;21.96;64.70;95060.69;5014071;28;20539;-80
2023/06/29 06:13:05;;;;;;;8.35;5.55;;;;;;;22.35;64.18;95032.03;5014491;28;20180;-80
2023/06/29 06:15:31;;;;;;;8.50;5.93;;;;;;;22.95;63.59;95052.19;5014166;28;20172;-80
2023/06/29 06:17:56;;;;;;;7.35;5.95;;;;;;;23.42;61.72;95057.91;5014563;28;20255;-80
2023/06/29 06:20:22;;;;;;;8.75;5.40;;;;;;;23.75;60.11;95058.88;5014440;28;20179;-80
2023/06/29 06:22:47;;;;;;;8.00;4.85;;;;;;;24.02;60.38;95057.16;5014229;28;20188;-80
2023/06/29 06:25:17;;;;;;;8.07;5.50;;;;;;;24.28;58.60;95065.72;5014043;28;20271;-80
2023/06/29 06:27:43;;;;;;;8.98;5.32;;;;;;;24.39;59.14;95064.44;5011859;28;20199;-81
2023/06/29 06:30:08;;;;;;;7.82;5.93;;;;;;;24.64;59.09;95062.47;5013656;28;20180;-80
2023/06/29 06:32:36;;;;;;;6.38;5.72;;;;;;;24.61;57.48;95020.78;5013886;28;20164;-81
2023/06/29 06:35:04;;;;;;;8.98;5.70;;;;;;;25.05;55.68;95068.00;5013863;28;20204;-81
2023/06/29 06:37:29;;;;;;;6.75;5.35;;;;;;;25.09;57.83;95063.59;5013730;28;20615;-81
2023/06/29 06:39:54;;;;;;;14.15;6.00;;;;;;;25.14;57.11;95053.56;5013729;28;20211;-81
2023/06/29 06:42:20;;;;;;;8.55;5.90;;;;;;;24.92;57.79;95042.63;5013598;28;20185;-81
2023/06/29 06:44:54;;;;;;;7.03;5.82;;;;;;;24.61;57.78;95061.16;5013557;28;20164;-81
2023/06/29 06:47:20;;;;;;;8.98;7.15;;;;;;;24.60;57.50;95059.56;5013580;28;20685;-81
2023/06/29 06:49:47;;;;;;;6.13;5.13;;;;;;;24.67;59.25;95067.25;5013642;28;20560;-81
2023/06/29 06:52:12;;;;;;;8.50;6.35;;;;;;;24.76;60.96;95062.81;5013956;28;20179;-81
2023/06/29 06:54:37;;;;;;;7.47;5.85;;;;;;;24.47;56.31;95057.63;5013078;28;20161;-80
2023/06/29 06:57:03;;;;;;;6.72;5.13;;;;;;;24.09;55.89;95054.13;5013666;28;20652;-80
2023/06/29 06:59:29;;;;;;;11.13;5.75;;;;;;;23.82;58.53;95056.63;5013473;28;20175;-81
2023/06/29 07:01:54;;;;;;;7.68;6.15;;;;;;;23.54;59.84;95048.38;5013127;28;20259;-81
2023/06/29 07:04:19;;;;;;;6.45;5.10;;;;;;;23.80;61.25;95051.53;5013398;28;20563;-82
2023/06/29 07:06:46;;;;;;;7.50;5.10;;;;;;;24.03;58.97;95034.56;5013302;28;20161;-83
2023/06/29 07:09:12;;;;;;;5.30;4.78;;;;;;;24.22;56.91;95039.16;5013540;28;20207;-83
2023/06/29 07:11:37;;;;;;;7.85;4.82;;;;;;;24.50;56.51;95042.75;5013363;28;20168;-84
2023/06/29 07:14:04;;;;;;;6.93;4.28;;;;;;;24.59;53.77;95057.16;5011849;28;20179;-84
2023/06/29 07:16:30;;;;;;;5.45;4.05;;;;;;;23.74;55.18;95030.38;5013544;28;20164;-83
2023/06/29 07:19:08;;;;;;;8.25;3.95;;;;;;;23.66;58.85;95019.19;5013506;28;20198;-82
2023/06/29 07:21:33;;;;;;;6.18;4.80;;;;;;;24.19;57.61;95045.09;5012266;28;20563;-87
2023/06/29 07:23:59;;;;;;;5.65;4.63;;;;;;;24.59;58.61;95032.94;5013126;28;20183;-91
2023/06/29 07:26:25;;;;;;;6.40;5.05;;;;;;;25.03;58.50;95054.81;5012818;28;20176;-83
2023/06/29 07:28:50;;;;;;;5.25;4.45;;;;;;;25.21;56.22;95055.06;5012653;28;20306;-83
2023/06/29 07:31:16;;;;;;;6.95;4.60;;;;;;;25.35;57.41;95031.59;5013026;28;20663;-90
2023/06/29 07:33:42;;;;;;;7.45;6.30;;;;;;;25.74;54.43;95058.09;5028389;28;20770;-81
2023/06/29 07:36:08;;;;;;;4.95;4.45;;;;;;;25.44;55.30;95013.63;5011977;28;20171;-90
2023/06/29 07:38:33;;;;;;;8.32;5.40;;;;;;;25.05;54.87;95006.84;5013559;28;20164;-91
2023/06/29 07:40:59;;;;;;;5.53;3.75;;;;;;;24.74;57.32;95011.13;5012102;28;20632;-89
2023/06/29 07:43:24;;;;;;;3.83;3.42;;;;;;;24.85;56.94;95025.22;5013344;28;20239;-90
2023/06/29 07:45:50;;;;;;;4.22;3.75;;;;;;;24.78;56.14;94985.22;5011881;28;20636;-91
2023/06/29 07:48:15;;;;;;;6.93;4.07;;;;;;;25.20;53.51;95013.81;5011792;28;20211;-89
2023/06/29 07:50:41;;;;;;;8.98;5.15;;;;;;;25.28;53.23;94986.19;5012143;28;20690;-89
2023/06/29 07:53:07;;;;;;;6.07;3.30;;;;;;;25.77;53.68;95042.09;5011673;28;20168;-85
2023/06/29 07:55:34;;;;;;;6.32;4.07;;;;;;;25.98;55.61;95012.00;5013192;28;20283;-85
2023/06/29 07:57:59;;;;;;;5.15;3.03;;;;;;;26.28;52.89;95024.84;5013159;28;20168;-92
2023/06/29 08:00:25;;;;;;;6.53;4.30;;;;;;;26.24;52.30;94988.72;5013777;28;20244;-91
2023/06/29 08:02:50;;;;;;;3.88;3.00;;;;;;;26.51;53.68;94996.75;5012919;28;20295;-88
2023/06/29 08:05:16;;;;;;;3.67;2.53;;;;;;;26.71;53.67;95006.25;5011371;28;20184;-89
2023/06/29 08:07:41;;;;;;;4.63;2.90;;;;;;;26.41;47.83;94974.56;5010899;28;20193;-90
2023/06/29 08:10:07;;;;;;;4.50;3.05;;;;;;;26.08;51.36;95041.47;5011101;28;20702;-84
2023/06/29 08:12:33;;;;;;;9.10;4.47;;;;;;;25.04;54.18;94989.06;5010678;28;20164;-85
2023/06/29 08:14:58;;;;;;;7.03;4.20;;;;;;;24.91;55.37;95034.84;5012012;28;20230;-79
2023/06/29 08:17:24;;;;;;;4.00;3.15;;;;;;;24.37;55.16;95012.03;5011012;28;20181;-87
2023/06/29 08:19:49;;;;;;;12.40;5.82;;;;;;;23.67;57.11;94967.03;5011190;28;20247;-89
2023/06/29 08:22:14;;;;;;;7.18;3.78;;;;;;;23.85;59.18;95038.03;5027644;28;20271;-83
2023/06/29 08:24:40;;;;;;;5.72;3.50;;;;;;;23.55;61.07;95027.66;5011381;28;20640;-84
2023/06/29 08:27:05;;;;;;;5.13;3.55;;;;;;;23.56;59.31;95030.06;5010542;28;20169;-80
2023/06/29 08:29:31;;;;;;;8.63;5.65;;;;;;;23.48;62.05;95027.97;5010955;28;20643;-83
2023/06/29 08:31:56;;;;;;;7.78;4.68;;;;;;;23.47;61.06;95017.50;5010695;28;20572;-84
2023/06/29 08:34:22;;;;;;;8.00;3.65;;;;;;;23.70;59.24;95017.50;5010487;28;20171;-83
2023/06/29 08:36:47;;;;;;;6.55;3.90;;;;;;;23.22;59.97;95029.38;5010909;28;20555;-84
2023/06/29 08:39:12;;;;;;;4.38;3.17;;;;;;;23.09;58.04;95035.44;5011752;28;20171;-81
2023/06/29 08:41:38;;;;;;;4.47;3.10;;;;;;;22.31;59.01;95024.81;5012001;28;20164;-82
2023/06/29 08:44:04;;;;;;;4.60;3.20;;;;;;;21.92;60.40;95020.22;5012317;28;20242;-82
2023/06/29 08:46:31;;;;;;;3.75;3.10;;;;;;;21.75;62.64;94963.50;5012419;28;20598;-82
2023/06/29 08:48:57;;;;;;;5.95;3.72;;;;;;;22.38;61.90;94972.44;5010777;28;20638;-83
2023/06/29 08:51:24;;;;;;;4.60;2.80;;;;;;;22.80;63.91;95012.06;5012139;28;20165;-88
2023/06/29 08:53:50;;;;;;;5.38;2.67;;;;;;;23.42;62.36;95013.03;5012466;28;20152;-86
2023/06/29 08:56:17;;;;;;;4.07;2.35;;;;;;;24.03;62.40;95021.13;5012361;28;20160;-80
2023/06/29 08:58:43;;;;;;;3.22;2.40;;;;;;;24.58;60.48;95012.47;5011680;28;20204;-83
2023/06/29 09:01:09;;;;;;;4.50;2.38;;;;;;;24.68;56.36;94975.41;5007089;28;20238;-83
2023/06/29 09:03:38;;;;;;;6.22;2.97;;;;;;;24.96;55.29;95007.81;5009050;28;20223;-83
2023/06/29 09:06:04;;;;;;;5.85;2.45;;;;;;;24.62;54.26;95014.31;5008380;28;20598;-83
2023/06/29 09:08:29;;;;;;;3.03;2.50;;;;;;;23.99;55.33;94997.75;5007059;28;20279;-83
2023/06/29 09:10:55;;;;;;;6.43;3.33;;;;;;;23.87;57.40;94976.66;5008749;28;20188;-83
2023/06/29 09:13:25;;;;;;;6.50;2.60;;;;;;;24.44;59.89;95010.56;5009942;28;20611;-84
2023/06/29 09:15:53;;;;;;;6.20;3.00;;;;;;;24.59;57.70;95009.50;5009433;28;20251;-84
2023/06/29 09:18:24;;;;;;;10.80;3.38;;;;;;;24.60;55.74;95002.22;5012199;28;20730;-84
2023/06/29 09:20:56;;;;;;;3.85;2.50;;;;;;;24.74;56.73;94982.31;5012174;28;20203;-84
2023/06/29 09:23:28;;;;;;;5.65;2.58;;;;;;;24.92;55.97;94977.97;5013454;28;20628;-84
2023/06/29 09:25:55;;;;;;;3.90;3.03;;;;;;;25.03;57.09;95000.94;5014662;28;20177;-85
2023/06/29 09:28:21;;;;;;;3.13;2.17;;;;;;;24.69;56.58;94997.75;5015057;28;20203;-84
2023/06/29 09:30:49;;;;;;;3.22;2.20;;;;;;;24.52;55.90;94960.63;5015114;28;20172;-84
2023/06/29 09:33:15;;;;;;;6.50;2.55;;;;;;;24.65;57.83;94953.69;5014939;28;20167;-84
2023/06/29 09:35:47;;;;;;;6.03;4.90;;;;;;;24.99;53.52;94985.69;5014190;28;20176;-84
2023/06/29 09:38:15;;;;;;;5.93;4.43;;;;;;;24.94;52.71;94996.53;5013101;28;20187;-85
2023/06/29 09:40:51;;;;;;;5.07;3.05;;;;;;;24.74;54.06;94987.69;5029763;28;20185;-82
2023/06/29 09:43:18;;;;;;;6.10;2.30;;;;;;;24.56;57.59;94975.06;5029936;28;20187;-82
2023/06/29 09:45:44;;;;;;;5.90;2.20;;;;;;;24.54;57.62;94982.66;5013689;28;20565;-86
2023/06/29 09:48:12;;;;;;;3.58;2.35;;;;;;;24.72;58.30;94971.03;5014891;28;20188;-86
2023/06/29 09:50:40;;;;;;;20.08;3.97;;;;;;;24.40;55.01;94990.69;5014752;28;20163;-86
2023/06/29 09:53:09;;;;;;;4.82;2.25;;;;;;;23.52;55.22;94932.28;5014697;28;20196;-85
2023/06/29 09:55:36;;;;;;;5.75;2.85;;;;;;;23.65;56.63;94988.00;5013479;28;20263;-86
2023/06/29 09:58:02;;;;;;;2.70;2.30;;;;;;;23.70;59.40;94950.28;5014750;28;20153;-86
2023/06/29 10:00:27;;;;;;;2.63;2.10;;;;;;;24.33;57.87;94994.84;5014884;28;20207;-82
2023/06/29 10:02:54;;;;;;;5.43;2.40;;;;;;;24.48;54.87;94973.06;5011881;28;20227;-84
2023/06/29 10:05:21;;;;;;;2.50;2.10;;;;;;;24.33;54.71;94957.97;5014196;28;20553;-83
2023/06/29 10:07:47;;;;;;;5.65;2.45;;;;;;;24.13;54.24;94952.09;5014028;28;20255;-81
2023/06/29 10:10:15;;;;;;;2.40;2.20;;;;;;;24.31;55.13;94986.25;5014207;28;20192;-86
2023/06/29 10:12:41;;;;;;;2.95;1.80;;;;;;;24.21;56.04;94989.94;5014005;28;20204;-83
2023/06/29 10:15:12;;;;;;;3.22;2.28;;;;;;;24.10;58.44;94953.47;5013911;28;20180;-83
2023/06/29 10:17:53;;;;;;;4.50;1.92;;;;;;;24.55;54.85;94978.88;5010127;28;20250;-83
2023/06/29 10:20:20;;;;;;;2.90;2.00;;;;;;;24.70;52.79;94973.22;5013048;28;20177;-82
2023/06/29 10:22:47;;;;;;;2.95;2.10;;;;;;;24.31;52.77;94935.13;5013612;28;20178;-84
2023/06/29 10:25:17;;;;;;;3.97;1.60;;;;;;;24.47;54.66;94963.41;5010586;28;20168;-83
2023/06/29 10:27:44;;;;;;;2.42;1.70;;;;;;;24.44;53.92;94962.09;5012995;28;20274;-85
2023/06/29 10:30:10;;;;;;;1.98;1.60;;;;;;;24.42;55.25;94958.09;5014121;28;20180;-84
2023/06/29 10:32:39;;;;;;;3.45;2.22;;;;;;;24.46;53.83;94959.13;5011663;28;20636;-84
2023/06/29 10:35:11;;;;;;;5.97;2.20;;;;;;;24.53;56.13;94961.44;5012736;28;20187;-85
2023/06/29 10:37:41;;;;;;;2.63;1.98;;;;;;;24.54;52.93;94965.72;5012394;28;20173;-85
2023/06/29 10:40:17;;;;;;;3.00;2.05;;;;;;;24.19;52.09;94940.97;5010841;28;20177;-82
2023/06/29 10:42:42;;;;;;;5.15;1.90;;;;;;;24.28;53.92;94960.75;5011588;28;20191;-83
2023/06/29 10:45:20;;;;;;;2.97;2.20;;;;;;;24.33;54.04;94957.19;5013930;28;20177;-82
2023/06/29 10:48:00;;;;;;;3.00;2.50;;;;;;;24.31;52.72;94951.28;5012368;28;20204;-88
2023/06/29 10:50:39;;;;;;;3.00;1.92;;;;;;;24.31;50.27;94949.38;5012331;28;20723;-86
2023/06/29 10:53:07;;;;;;;3.85;2.05;;;;;;;23.92;51.18;94901.31;5013935;28;20187;-87
2023/06/29 10:55:41;;;;;;;2.63;2.10;;;;;;;23.50;53.04;94874.53;5012502;28;20632;-87
2023/06/29 10:58:24;;;;;;;4.50;2.25;;;;;;;23.97;55.38;94951.53;5012654;28;20182;-86
2023/06/29 11:00:52;;;;;;;3.83;2.30;;;;;;;23.89;55.61;94949.50;5013295;28;20191;-86
2023/06/29 11:03:19;;;;;;;4.22;2.45;;;;;;;23.45;55.67;94896.06;5012111;28;20648;-86
2023/06/29 11:05:49;;;;;;;3.47;2.47;;;;;;;23.49;55.03;94889.06;5009950;28;20189;-86
2023/06/29 11:08:15;;;;;;;5.63;2.08;;;;;;;23.75;53.27;94919.88;5009862;28;20567;-87
2023/06/29 11:10:41;;;;;;;3.25;2.53;;;;;;;23.58;53.60;94876.56;5010428;28;20656;-87
2023/06/29 11:13:08;;;;;;;4.22;2.72;;;;;;;23.65;54.57;94903.88;5010165;28;20267;-86
2023/06/29 11:15:34;;;;;;;2.78;2.47;;;;;;;23.65;53.00;94899.28;5011082;28;20652;-86
2023/06/29 11:18:04;;;;;;;5.10;2.15;;;;;;;23.79;53.73;94912.78;5010968;28;20223;-86
2023/06/29 11:20:29;;;;;;;2.80;2.40;;;;;;;23.87;53.27;94911.34;5011151;28;20279;-86
2023/06/29 11:22:57;;;;;;;3.88;2.30;;;;;;;24.17;50.02;94937.75;5009466;28;20634;-86
2023/06/29 11:25:22;;;;;;;2.83;1.95;;;;;;;24.05;53.62;94948.97;5010815;28;20296;-86
2023/06/29 11:27:48;;;;;;;2.58;2.30;;;;;;;24.02;53.81;94935.31;5010620;28;20279;-86